Observations for RENNES ST. JACQUES, France (LFRN)

LFRN 242030Z AUTO 23006KT 9999 FEW021 12/09 Q1016 NOSIG 
LFRN 242000Z AUTO 26008KT 9999 FEW022 SCT046 12/09 Q1016 NOSIG  
LFRN 241930Z AUTO 27008KT CAVOK 13/09 Q1016 NOSIG   
LFRN 241900Z AUTO 27007KT CAVOK 14/09 Q1016 NOSIG   
LFRN 241830Z AUTO 24007KT CAVOK 15/09 Q1016 NOSIG   
LFRN 241800Z AUTO 23008KT 190V250 CAVOK 16/09 Q1016 NOSIG   
LFRN 241730Z AUTO 22009KT 190V250 CAVOK 17/09 Q1016 NOSIG   
LFRN 241700Z AUTO 21010KT 180V240 CAVOK 17/09 Q1016 NOSIG   
LFRN 241630Z AUTO 22011KT CAVOK 18/09 Q1016 NOSIG   
LFRN 241600Z AUTO 23010KT 190V260 CAVOK 18/10 Q1016 NOSIG   
LFRN 241530Z AUTO 22010KT 190V260 CAVOK 19/10 Q1016 NOSIG   
LFRN 241500Z AUTO 24011KT 210V280 CAVOK 19/11 Q1017 NOSIG   
LFRN 241430Z AUTO 22010KT 190V260 9999 FEW034 19/11 Q1017 NOSIG 
LFRN 241400Z AUTO 21008KT 170V260 CAVOK 19/11 Q1018 NOSIG   
LFRN 241330Z AUTO 20009KT 150V250 CAVOK 19/10 Q1018 NOSIG   
LFRN 241300Z AUTO 20008KT 160V280 CAVOK 18/10 Q1018 NOSIG   
LFRN 241230Z AUTO 23007KT 190V280 CAVOK 18/10 Q1018 NOSIG   
LFRN 241200Z AUTO 24008KT 180V280 CAVOK 18/10 Q1019 NOSIG   
LFRN 241130Z AUTO 20007KT 170V250 CAVOK 17/09 Q1019 NOSIG   
LFRN 241100Z AUTO 22007KT 180V270 CAVOK 17/09 Q1020 NOSIG   
LFRN 241030Z AUTO 22007KT 170V260 CAVOK 16/08 Q1020 NOSIG   
LFRN 241000Z AUTO 23005KT 200V280 CAVOK 15/09 Q1020 NOSIG   
LFRN 240930Z AUTO 20006KT 150V240 CAVOK 15/08 Q1020 NOSIG   
LFRN 240900Z AUTO 25006KT 220V280 CAVOK 14/08 Q1021 NOSIG   
LFRN 240830Z AUTO 22005KT 170V260 CAVOK 13/08 Q1021 NOSIG   
LFRN 240800Z AUTO 24004KT 180V300 CAVOK 12/08 Q1021 NOSIG   
LFRN 240730Z AUTO 22004KT 180V260 CAVOK 11/07 Q1021 NOSIG   
LFRN 240700Z AUTO 20003KT CAVOK 09/08 Q1020 NOSIG   
LFRN 240630Z AUTO 00000KT CAVOK 07/07 Q1021 NOSIG   
LFRN 240600Z AUTO 29003KT 6000 NSC 06/06 Q1021 TEMPO 3000 MIFG  
LFRN 240530Z AUTO 00000KT CAVOK 05/05 Q1020 TEMPO 3000 MIFG 
LFRN 240500Z AUTO 30002KT 8000 NSC 05/05 Q1020 TEMPO 3000 MIFG  
LFRN 240430Z AUTO 27002KT 5000 BR NSC 05/05 Q1020 NOSIG 
LFRN 240400Z AUTO 00000KT CAVOK 05/05 Q1020 TEMPO 3000 MIFG 
LFRN 240330Z AUTO 00000KT 9000 NSC 06/05 Q1020 TEMPO 3000 MIFG  
LFRN 240300Z AUTO 24002KT 8000 NSC 06/05 Q1020 TEMPO 3000 MIFG  
LFRN 240230Z AUTO 20002KT 9000 NSC 06/06 Q1021 TEMPO 3000 MIFG  
LFRN 240200Z AUTO 25002KT CAVOK 06/06 Q1021 TEMPO 3000 MIFG 
LFRN 240130Z AUTO 30003KT CAVOK 06/06 Q1021 NOSIG   
LFRN 240100Z AUTO 29003KT CAVOK 07/06 Q1021 NOSIG   
LFRN 240030Z AUTO 28002KT CAVOK 07/06 Q1021 NOSIG   
LFRN 240000Z AUTO 29001KT CAVOK 07/06 Q1021 NOSIG   
LFRN 232330Z AUTO 28002KT CAVOK 07/06 Q1021 NOSIG   
LFRN 232300Z AUTO 28002KT CAVOK 08/06 Q1021 NOSIG   
LFRN 232230Z AUTO 33002KT 9999 FEW041 08/05 Q1022 NOSIG 
LFRN 232200Z AUTO 01003KT 9999 FEW041 09/06 Q1021 NOSIG 
LFRN 232130Z AUTO 36004KT CAVOK 09/06 Q1022 NOSIG   
LFRN 232100Z AUTO 35003KT 9999 FEW041 10/06 Q1021 NOSIG 
LFRN 232030Z AUTO 02003KT CAVOK 10/06 Q1021 NOSIG   
LFRN 232000Z AUTO 02004KT CAVOK 11/06 Q1021 NOSIG